Albany, New York
Current Conditions -  °F | °C
As of 5:51 AM on Tuesday 21 Oct 2014 (Local Time) from KALB Reporting Station
Light Rain Light Rain  
Wind Chill: 49°   Ceiling: 6000
Heat Index: 49°   Visibility: 10mi
Dew Point: 45°   Wind: 0mph
Humidity: 86%   Direction: NA
Pressure: 29.9"   Gusts: NA
Location:  42.65°N, 73.75°W
Report Text: KALB 210951Z 00000KT 10SM -RA OVC060 09/07 A2990 RMK AO2 SLP126 P0001 T00940072
Loading
Personal Weather Stations






























Interactive Weather Map New forecast layout! Learn more

10-Day Weather Forecast

Advertisements
Track Severe Weather on mobile